createdAt,value
2023-01-11T00:11:58.729Z,0.8896321070234113
2023-01-11T00:18:20.951Z,0.35451505016722407
2023-01-11T00:24:44.127Z,0.6220735785953178
2023-01-11T00:36:56.535Z,0.8561872909698997
2023-01-11T00:43:19.812Z,0.8093645484949833
2023-01-11T00:49:43.267Z,0.5484949832775919
2023-01-11T00:56:05.805Z,0.44816053511705684
2023-01-11T01:02:28.277Z,0.5618729096989966
2023-01-11T01:08:51.388Z,0.4414715719063545
2023-01-11T01:15:13.937Z,0.6287625418060201
2023-01-11T01:21:37.082Z,0.7625418060200669
2023-01-11T01:27:59.740Z,0.35451505016722407
2023-01-11T01:34:21.964Z,0.7290969899665551
2023-01-11T01:40:44.853Z,0.44816053511705684
2023-01-11T01:47:07.753Z,0.5217391304347826
2023-01-11T01:53:30.171Z,0.35451505016722407
2023-01-11T01:59:54.111Z,0.1939799331103679
2023-01-11T02:11:08.876Z,0.6254180602006689
2023-01-11T02:17:30.559Z,0.568561872909699
2023-01-11T02:33:35.005Z,0.6153846153846154
2023-01-11T02:39:57.592Z,0.5719063545150501
2023-01-11T02:48:45.905Z,0.45484949832775917
2023-01-11T02:55:07.487Z,0.35451505016722407
2023-01-11T03:01:29.423Z,0.5351170568561873
2023-01-11T03:07:52.627Z,0.6789297658862876
2023-01-11T03:14:15.119Z,0.6889632107023411
2023-01-11T03:31:40.726Z,0.7859531772575251
2023-01-11T03:38:03.998Z,0.2809364548494983
2023-01-11T03:44:27.499Z,0.5585284280936454
2023-01-11T03:50:49.951Z,0.08695652173913043
2023-01-11T03:57:11.537Z,0.6688963210702341
2023-01-11T04:03:34.221Z,0.12040133779264214
2023-01-11T04:09:57.523Z,0.5752508361204013
2023-01-11T04:16:18.887Z,0.8963210702341137
2023-01-11T04:22:41.448Z,0.2809364548494983
2023-01-11T04:29:04.049Z,0.5752508361204013
2023-01-11T04:35:26.612Z,0.26755852842809363
2023-01-11T04:41:49.771Z,0.6086956521739131
2023-01-11T04:48:12.484Z,0.1806020066889632
2023-01-11T04:54:34.699Z,0.35451505016722407
2023-01-11T05:00:57.594Z,0.3612040133779264
2023-01-11T05:07:20.657Z,0.17391304347826086
2023-01-11T05:13:43.767Z,0.08695652173913043
2023-01-11T05:20:06.262Z,0.44816053511705684
2023-01-11T05:26:29.242Z,0.34782608695652173
2023-01-11T05:32:51.220Z,0.1806020066889632
2023-01-11T05:39:43.367Z,0.08695652173913043
2023-01-11T05:50:05.511Z,0.17391304347826086
2023-01-11T05:56:28.431Z,0.24749163879598662
2023-01-11T06:02:51.091Z,0.10033444816053512
2023-01-11T06:16:06.673Z,0.1806020066889632
2023-01-11T06:22:32.516Z,0.0
2023-01-11T06:28:57.131Z,0.08695652173913043
2023-01-11T06:35:19.302Z,0.35451505016722407
2023-01-11T06:41:41.192Z,0.0
2023-01-11T06:48:04.130Z,0.26755852842809363
2023-01-11T06:54:26.659Z,0.35451505016722407
2023-01-11T07:00:48.870Z,0.08695652173913043
2023-01-11T07:09:43.802Z,0.4280936454849498
2023-01-11T07:24:19.482Z,0.35451505016722407
2023-01-11T07:30:56.866Z,0.0
2023-01-11T07:37:28.845Z,0.4782608695652174
2023-01-11T07:43:53.892Z,0.17391304347826086
2023-01-11T08:01:11.241Z,0.35451505016722407
2023-01-11T08:07:34.386Z,0.4180602006688963
2023-01-11T08:17:13.794Z,0.35451505016722407
2023-01-11T08:23:37.480Z,0.882943143812709
2023-01-11T08:30:03.705Z,0.9565217391304348
2023-01-11T08:36:29.317Z,1.5919732441471572
2023-01-11T08:50:04.013Z,0.5217391304347826
2023-01-11T09:08:30.463Z,0.8294314381270903
2023-01-11T09:21:18.504Z,1.0735785953177257
2023-01-11T09:27:43.932Z,1.4013377926421404
2023-01-11T09:34:09.420Z,2.0535117056856187
2023-01-11T09:40:34.073Z,1.3311036789297659
2023-01-11T09:52:23.894Z,0.6020066889632107
2023-01-11T09:58:49.137Z,0.6889632107023411
2023-01-11T10:23:43.823Z,1.605351170568562
2023-01-11T10:32:59.504Z,0.7090301003344481
2023-01-11T10:39:25.000Z,1.0969899665551839
2023-01-11T10:45:50.868Z,0.9565217391304348
2023-01-11T10:52:16.175Z,1.4949832775919731
2023-01-11T11:02:32.839Z,0.7625418060200669
2023-01-11T11:08:58.150Z,1.4682274247491638
2023-01-11T11:20:13.040Z,2.0267558528428093
2023-01-11T11:26:38.749Z,2.3411371237458196
2023-01-11T11:35:05.585Z,2.6187290969899664
2023-01-11T11:41:30.498Z,1.605351170568562
2023-01-11T11:47:56.104Z,1.9063545150501673
2023-01-11T11:54:22.078Z,2.3645484949832776
2023-01-11T12:00:46.638Z,2.060200668896321
2023-01-11T12:11:55.232Z,2.4648829431438126
2023-01-11T12:22:24.634Z,1.919732441471572
2023-01-11T12:30:33.137Z,3.1137123745819397
2023-01-11T12:36:59.054Z,1.882943143812709
2023-01-11T12:43:24.250Z,3.367892976588629
2023-01-11T12:56:12.482Z,2.387959866220736
2023-01-11T13:02:37.797Z,1.9732441471571907
2023-01-11T13:09:03.077Z,2.0267558528428093
2023-01-11T13:26:01.028Z,2.270903010033445
2023-01-11T13:33:08.166Z,2.4013377926421406
2023-01-11T13:44:44.761Z,2.120401337792642
2023-01-11T13:53:21.075Z,2.408026755852843
2023-01-11T14:04:50.182Z,2.3444816053511706
2023-01-11T14:11:14.494Z,1.5585284280936456
2023-01-11T14:23:14.966Z,1.7324414715719063
2023-01-11T14:30:16.318Z,2.8160535117056855
2023-01-11T14:36:44.006Z,2.5050167224080266
2023-01-11T14:43:08.960Z,2.137123745819398
2023-01-11T14:55:20.809Z,2.3612040133779266
2023-01-11T15:13:38.435Z,2.040133779264214
2023-01-11T15:20:06.060Z,2.8361204013377925
2023-01-11T15:26:28.346Z,2.6655518394648827
2023-01-11T15:32:50.460Z,2.234113712374582
2023-01-11T15:39:14.020Z,2.4949832775919734
2023-01-11T15:45:36.475Z,1.7591973244147157
2023-01-11T15:51:59.567Z,2.491638795986622
2023-01-11T15:58:23.939Z,3.137123745819398
2023-01-11T16:04:46.862Z,3.321070234113712
2023-01-11T16:11:09.531Z,2.963210702341137
2023-01-11T16:17:48.941Z,3.2240802675585285
2023-01-11T16:24:11.805Z,3.2140468227424748
2023-01-11T16:30:34.107Z,3.230769230769231
2023-01-11T16:36:57.216Z,2.82943143812709
2023-01-11T16:43:19.584Z,3.0735785953177257
2023-01-11T16:49:43.014Z,4.274247491638796
2023-01-11T16:56:05.766Z,2.4347826086956523
2023-01-11T17:02:27.818Z,3.3444816053511706
2023-01-11T17:08:50.057Z,3.9264214046822743
2023-01-11T17:15:11.944Z,3.0702341137123748
2023-01-11T17:21:35.065Z,4.648829431438127
2023-01-11T17:27:57.672Z,3.7926421404682276
2023-01-11T17:36:23.380Z,2.5351170568561874
2023-01-11T17:42:45.977Z,3.3344481605351173
2023-01-11T17:49:08.417Z,3.157190635451505
2023-01-11T17:55:31.415Z,3.709030100334448
2023-01-11T18:01:53.736Z,4.103678929765886
2023-01-11T18:08:16.463Z,3.9464882943143813
2023-01-11T18:14:43.743Z,3.0334448160535117
2023-01-11T18:21:06.242Z,2.862876254180602
2023-01-11T18:29:14.884Z,2.919732441471572
2023-01-11T18:35:55.941Z,3.6923076923076925
2023-01-11T18:43:06.273Z,4.775919732441472
2023-01-11T18:50:58.868Z,4.3879598662207355
2023-01-11T18:57:28.508Z,3.3745819397993313
2023-01-11T19:04:26.965Z,2.5819397993311037
2023-01-11T19:14:27.668Z,4.622073578595318
2023-01-11T19:21:02.788Z,3.8862876254180603
2023-01-11T19:27:35.433Z,3.6622073578595318
2023-01-11T19:34:18.372Z,2.6254180602006687
2023-01-11T19:50:22.964Z,2.903010033444816
2023-01-11T19:56:54.808Z,3.7157190635451505
2023-01-11T20:03:26.036Z,4.531772575250836
2023-01-11T20:17:11.218Z,3.05685618729097
2023-01-11T20:24:20.623Z,3.240802675585284
2023-01-11T20:35:30.376Z,3.237458193979933
2023-01-11T20:43:02.438Z,3.5183946488294313
2023-01-11T20:49:45.097Z,3.5852842809364547
2023-01-11T20:56:14.582Z,2.8127090301003346
2023-01-11T21:02:45.613Z,3.1036789297658864
2023-01-11T21:12:31.815Z,2.9899665551839463
2023-01-11T21:19:09.265Z,3.347826086956522
2023-01-11T21:25:41.564Z,1.9331103678929766
2023-01-11T21:32:16.292Z,3.0334448160535117
2023-01-11T21:38:49.310Z,4.026755852842809
2023-01-11T21:45:20.946Z,2.6956521739130435
2023-01-11T21:51:53.964Z,2.882943143812709
2023-01-11T21:59:07.906Z,2.4782608695652173
2023-01-11T22:05:37.188Z,2.180602006688963
2023-01-11T22:12:14.342Z,2.8461538461538463
2023-01-11T22:18:57.639Z,3.939799331103679
2023-01-11T22:25:29.759Z,2.749163879598662
2023-01-11T22:32:01.467Z,2.779264214046823
2023-01-11T22:38:32.825Z,1.9163879598662208
2023-01-11T22:54:12.912Z,2.7926421404682276
2023-01-11T23:12:30.271Z,1.8862876254180603
2023-01-11T23:19:22.216Z,2.5418060200668897
2023-01-11T23:26:11.976Z,1.8361204013377928
2023-01-11T23:32:53.756Z,1.6588628762541806
2023-01-11T23:39:32.771Z,1.7491638795986622
2023-01-11T23:46:26.046Z,1.8862876254180603
2023-01-11T23:53:04.866Z,2.234113712374582
2023-01-11T23:59:59.066Z,2.488294314381271
